Time;durP1;ratioP1;P1;durP2;ratioP2;P2;SDS_P1;SDS_P2;PMS_P1;PMS_P2;Temp;Humidity;BMP_temperature;BMP_pressure;BME280_temperature;BME280_humidity;BME280_pressure;Samples;Min_cycle;Max_cycle;Signal;HPM_P1;HPM_P2
2023/03/22 00:01:11;;;;;;;79.53;50.53;;;;;;;9.01;100.00;99403.50;5052264;28;20029;-79
2023/03/22 00:03:37;;;;;;;77.97;49.08;;;;;;;9.00;100.00;99405.25;5052158;28;20068;-80
2023/03/22 00:06:02;;;;;;;81.03;50.03;;;;;;;8.83;100.00;99373.16;5052004;28;20048;-80
2023/03/22 00:08:27;;;;;;;80.50;49.70;;;;;;;8.80;100.00;99365.50;5051900;28;20310;-79
2023/03/22 00:10:53;;;;;;;81.68;50.55;;;;;;;8.89;100.00;99380.66;5051671;28;20070;-80
2023/03/22 00:13:18;;;;;;;78.50;48.40;;;;;;;9.02;100.00;99394.81;5051832;28;20028;-80
2023/03/22 00:15:47;;;;;;;82.65;52.08;;;;;;;8.88;100.00;99366.00;5051818;28;20029;-80
2023/03/22 00:18:13;;;;;;;80.72;48.38;;;;;;;9.05;100.00;99391.22;5051841;28;20045;-80
2023/03/22 00:20:46;;;;;;;72.43;45.85;;;;;;;8.98;100.00;99370.75;5051662;28;20025;-80
2023/03/22 00:23:11;;;;;;;71.90;44.08;;;;;;;8.89;100.00;99352.09;5051830;28;20037;-80
2023/03/22 00:25:36;;;;;;;75.60;46.10;;;;;;;8.83;100.00;99353.22;5051540;28;20111;-79
2023/03/22 00:28:02;;;;;;;75.70;48.78;;;;;;;8.82;100.00;99328.19;5051750;28;20098;-80
2023/03/22 00:30:27;;;;;;;76.53;46.13;;;;;;;8.84;100.00;99341.91;5051788;28;20025;-80
2023/03/22 00:32:52;;;;;;;70.90;46.42;;;;;;;9.08;100.00;99365.97;5051531;28;20028;-80
2023/03/22 00:35:17;;;;;;;69.45;44.80;;;;;;;9.06;100.00;99366.94;5051574;28;20021;-80
2023/03/22 00:37:43;;;;;;;73.35;45.53;;;;;;;9.01;100.00;99359.34;5051400;28;20025;-80
2023/03/22 00:40:11;;;;;;;69.13;45.40;;;;;;;9.07;100.00;99363.44;5051507;28;20021;-80
2023/03/22 00:42:38;;;;;;;70.20;45.65;;;;;;;9.06;100.00;99357.41;5051205;28;20040;-80
2023/03/22 00:45:05;;;;;;;71.00;46.38;;;;;;;9.13;100.00;99352.75;5051443;28;20151;-80
2023/03/22 00:47:31;;;;;;;68.60;45.47;;;;;;;9.12;100.00;99345.88;5051487;28;20029;-80
2023/03/22 00:49:56;;;;;;;65.93;42.30;;;;;;;8.96;100.00;99330.97;5051451;28;20051;-80
2023/03/22 00:52:22;;;;;;;70.72;44.97;;;;;;;9.07;100.00;99353.91;5053323;28;20033;-79
2023/03/22 00:54:47;;;;;;;71.78;43.65;;;;;;;8.98;100.00;99343.91;5055218;28;20108;-80
2023/03/22 00:57:13;;;;;;;69.30;42.38;;;;;;;8.94;100.00;99329.38;5055687;28;20029;-80
2023/03/22 00:59:41;;;;;;;62.72;41.47;;;;;;;9.04;100.00;99322.00;5055370;28;20023;-80
2023/03/22 01:02:08;;;;;;;66.70;43.92;;;;;;;9.03;100.00;99331.56;5055342;28;20488;-79
2023/03/22 01:04:34;;;;;;;66.65;44.50;;;;;;;9.10;100.00;99335.56;5055174;28;20025;-80
2023/03/22 01:07:02;;;;;;;66.80;45.13;;;;;;;8.95;100.00;99312.88;5055257;28;20028;-80
2023/03/22 01:09:29;;;;;;;67.88;44.80;;;;;;;8.91;100.00;99319.13;5055131;28;20025;-80
2023/03/22 01:11:58;;;;;;;64.38;42.10;;;;;;;8.85;100.00;99317.66;5055127;28;20029;-80
2023/03/22 01:14:24;;;;;;;65.80;46.60;;;;;;;9.11;100.00;99328.63;5055288;28;20025;-79
2023/03/22 01:16:53;;;;;;;70.07;42.58;;;;;;;8.91;100.00;99313.94;5054767;28;20083;-80
2023/03/22 01:19:19;;;;;;;67.90;43.60;;;;;;;8.96;100.00;99328.38;5055198;28;20032;-80
2023/03/22 01:21:44;;;;;;;67.60;42.53;;;;;;;9.00;100.00;99327.34;5055484;28;20381;-80
2023/03/22 01:24:10;;;;;;;65.40;40.58;;;;;;;8.78;100.00;99285.06;5055072;28;20025;-80
2023/03/22 01:26:35;;;;;;;65.63;44.28;;;;;;;9.03;100.00;99305.59;5054597;28;20257;-80
2023/03/22 01:29:00;;;;;;;64.85;42.97;;;;;;;9.09;100.00;99326.06;5055246;28;20067;-80
2023/03/22 01:31:26;;;;;;;66.28;42.90;;;;;;;8.98;100.00;99321.38;5054928;28;20021;-80
2023/03/22 01:33:51;;;;;;;65.53;43.63;;;;;;;8.96;100.00;99307.59;5054772;28;20024;-80
2023/03/22 01:36:16;;;;;;;70.10;43.88;;;;;;;8.99;100.00;99317.88;5054813;28;20119;-80
2023/03/22 01:38:42;;;;;;;66.50;42.03;;;;;;;9.03;100.00;99313.38;5054581;28;20021;-80
2023/03/22 01:41:07;;;;;;;64.45;42.00;;;;;;;9.03;100.00;99309.94;5054808;28;20052;-79
2023/03/22 01:43:32;;;;;;;69.57;43.25;;;;;;;8.92;100.00;99287.88;5053287;28;20033;-80
2023/03/22 01:45:58;;;;;;;68.15;42.88;;;;;;;9.11;100.00;99310.44;5054268;28;20028;-80
2023/03/22 01:48:27;;;;;;;68.55;42.90;;;;;;;9.05;100.00;99308.09;5054617;28;20032;-80
2023/03/22 01:50:58;;;;;;;67.15;43.33;;;;;;;9.19;100.00;99309.16;5054248;28;20040;-80
2023/03/22 01:53:25;;;;;;;70.30;44.33;;;;;;;9.21;100.00;99309.09;5054450;28;20396;-80
2023/03/22 01:55:52;;;;;;;68.68;46.67;;;;;;;9.24;100.00;99306.34;5052952;28;20472;-79
2023/03/22 01:58:18;;;;;;;70.55;47.88;;;;;;;9.18;100.00;99275.44;5054426;28;20052;-80
2023/03/22 02:00:45;;;;;;;70.35;47.42;;;;;;;9.25;100.00;99277.69;5054170;28;20468;-80
2023/03/22 02:03:16;;;;;;;67.45;44.28;;;;;;;9.23;100.00;99276.94;5053707;28;20128;-80
2023/03/22 02:05:42;;;;;;;69.30;45.23;;;;;;;9.12;100.00;99262.75;5053846;28;20396;-79
2023/03/22 02:08:07;;;;;;;69.93;45.72;;;;;;;9.15;100.00;99273.84;5054149;28;20036;-80
2023/03/22 02:10:33;;;;;;;70.70;44.42;;;;;;;9.09;100.00;99279.31;5054537;28;20068;-79
2023/03/22 02:13:29;;;;;;;62.03;43.30;;;;;;;9.26;100.00;99299.31;5053965;28;20028;-80
2023/03/22 02:16:06;;;;;;;59.72;43.45;;;;;;;9.24;100.00;99301.16;5053811;28;20040;-80
2023/03/22 02:18:31;;;;;;;71.05;46.10;;;;;;;9.28;100.00;99289.72;5054199;28;20048;-80
2023/03/22 02:21:00;;;;;;;71.13;47.45;;;;;;;9.29;100.00;99282.75;5053821;28;20025;-80
2023/03/22 02:23:37;;;;;;;70.47;45.30;;;;;;;9.15;100.00;99286.84;5054192;28;20472;-80
2023/03/22 02:26:40;;;;;;;68.50;45.70;;;;;;;8.98;100.00;99264.25;5053946;28;20031;-80
2023/03/22 02:29:21;;;;;;;76.55;45.92;;;;;;;8.98;100.00;99269.44;5054023;28;20035;-80
2023/03/22 02:32:21;;;;;;;74.38;44.45;;;;;;;8.70;100.00;99241.28;5053687;28;20028;-80
2023/03/22 02:34:55;;;;;;;72.38;44.92;;;;;;;8.97;100.00;99282.47;5053403;28;20025;-80
2023/03/22 02:38:07;;;;;;;71.15;45.28;;;;;;;9.01;100.00;99284.03;5053802;28;20024;-80
2023/03/22 02:40:46;;;;;;;66.35;45.78;;;;;;;9.09;100.00;99288.88;5053967;28;20021;-80
2023/03/22 02:43:40;;;;;;;63.30;41.65;;;;;;;8.89;100.00;99250.81;5053508;28;20025;-79
2023/03/22 02:46:11;;;;;;;65.55;44.65;;;;;;;9.26;100.00;99288.91;5053425;28;20029;-80
2023/03/22 02:49:05;;;;;;;66.45;45.88;;;;;;;9.32;100.00;99290.41;5053489;28;20025;-80
2023/03/22 02:52:10;;;;;;;62.88;44.50;;;;;;;9.28;100.00;99271.50;5053401;28;20029;-80
2023/03/22 02:54:51;;;;;;;67.50;44.30;;;;;;;9.27;100.00;99274.16;5053603;28;20029;-80
2023/03/22 02:57:29;;;;;;;65.68;46.20;;;;;;;9.33;100.00;99292.91;5053230;28;20059;-80
2023/03/22 02:59:57;;;;;;;73.28;47.35;;;;;;;9.24;100.00;99276.00;5052879;28;20032;-80
2023/03/22 03:02:25;;;;;;;64.70;43.92;;;;;;;9.21;100.00;99259.72;5053320;28;20033;-80
2023/03/22 03:04:52;;;;;;;62.65;44.83;;;;;;;9.47;100.00;99297.47;5052958;28;20025;-80
2023/03/22 03:07:24;;;;;;;65.10;46.40;;;;;;;9.48;100.00;99301.72;5053039;28;20029;-80
2023/03/22 03:09:50;;;;;;;62.15;44.25;;;;;;;9.58;100.00;99307.34;5052747;28;20028;-80
2023/03/22 03:12:22;;;;;;;62.50;44.72;;;;;;;9.37;100.00;99272.84;5052863;28;20033;-80
2023/03/22 03:14:48;;;;;;;59.20;43.25;;;;;;;9.61;100.00;99315.84;5051925;28;20095;-80
2023/03/22 03:17:23;;;;;;;67.07;44.50;;;;;;;9.53;100.00;99309.34;5053128;28;20132;-80
2023/03/22 03:20:11;;;;;;;62.72;45.35;;;;;;;9.53;100.00;99317.97;5052538;28;20028;-80
2023/03/22 03:22:56;;;;;;;62.83;44.75;;;;;;;9.40;100.00;99293.50;5052800;28;20119;-80
2023/03/22 03:25:42;;;;;;;70.53;44.88;;;;;;;9.46;100.00;99300.97;5052714;28;20025;-80
2023/03/22 03:28:13;;;;;;;67.18;45.33;;;;;;;9.36;100.00;99286.75;5051436;28;20025;-79
2023/03/22 03:31:05;;;;;;;64.78;47.00;;;;;;;9.50;100.00;99318.13;5052639;28;20029;-79
2023/03/22 03:33:34;;;;;;;69.78;47.90;;;;;;;9.53;100.00;99311.94;5030237;28;20045;-80
2023/03/22 03:36:08;;;;;;;65.65;45.95;;;;;;;9.50;100.00;99316.34;5029990;28;20430;-80
2023/03/22 03:38:38;;;;;;;68.90;46.97;;;;;;;9.29;100.00;99274.94;5030147;28;20061;-80
2023/03/22 03:41:08;;;;;;;64.75;45.35;;;;;;;9.47;100.00;99315.66;5029844;28;20093;-80
2023/03/22 03:43:35;;;;;;;66.97;47.08;;;;;;;9.29;100.00;99293.13;5029974;28;20125;-80
2023/03/22 03:46:01;;;;;;;69.95;45.97;;;;;;;9.41;100.00;99313.34;5029674;28;20159;-79
2023/03/22 03:48:30;;;;;;;68.45;47.20;;;;;;;9.41;100.00;99324.59;5029987;28;20233;-80
2023/03/22 03:50:57;;;;;;;64.28;45.78;;;;;;;9.30;100.00;99293.06;5029974;28;20033;-80
2023/03/22 03:53:22;;;;;;;66.53;47.92;;;;;;;9.34;100.00;99297.19;5029928;28;20041;-80
2023/03/22 03:55:48;;;;;;;64.35;45.85;;;;;;;9.47;100.00;99316.50;5029582;28;20033;-80
2023/03/22 03:58:15;;;;;;;65.18;44.78;;;;;;;9.38;100.00;99306.53;5029781;28;20116;-80
2023/03/22 04:00:41;;;;;;;67.10;47.00;;;;;;;9.41;100.00;99309.00;5029895;28;20025;-80
2023/03/22 04:03:07;;;;;;;64.50;44.05;;;;;;;9.36;100.00;99303.19;5029665;28;20033;-80
2023/03/22 04:05:32;;;;;;;70.65;47.22;;;;;;;9.46;100.00;99329.56;5029768;28;20446;-80
2023/03/22 04:07:58;;;;;;;67.72;46.78;;;;;;;9.43;100.00;99317.56;5029445;28;20064;-80
2023/03/22 04:10:23;;;;;;;68.85;47.20;;;;;;;9.18;100.00;99272.84;5040139;28;20040;-80
2023/03/22 04:12:48;;;;;;;68.13;47.25;;;;;;;9.28;100.00;99289.72;5051612;28;20029;-79
2023/03/22 04:15:14;;;;;;;67.95;47.13;;;;;;;9.24;100.00;99281.22;5051855;28;20301;-80
2023/03/22 04:17:39;;;;;;;67.13;45.47;;;;;;;9.24;100.00;99276.00;5051877;28;20048;-80
2023/03/22 04:20:09;;;;;;;68.82;47.75;;;;;;;9.35;100.00;99303.22;5051689;28;20116;-80
2023/03/22 04:22:37;;;;;;;64.88;45.90;;;;;;;9.27;100.00;99281.97;5051896;28;20032;-79
2023/03/22 04:25:04;;;;;;;66.15;45.78;;;;;;;9.39;100.00;99304.78;5051424;28;20039;-79
2023/03/22 04:27:30;;;;;;;70.35;46.78;;;;;;;9.33;100.00;99292.09;5051674;28;20036;-78
2023/03/22 04:29:55;;;;;;;70.25;46.20;;;;;;;9.21;100.00;99275.31;5051671;28;20496;-79
2023/03/22 04:32:24;;;;;;;79.25;49.33;;;;;;;9.24;100.00;99283.81;5051820;28;20063;-79
2023/03/22 04:34:49;;;;;;;94.55;65.50;;;;;;;9.18;100.00;99293.63;5051550;28;20040;-78
2023/03/22 04:37:15;;;;;;;87.80;63.58;;;;;;;9.24;100.00;99285.56;5051958;28;20032;-78
2023/03/22 04:39:41;;;;;;;73.55;51.33;;;;;;;9.14;100.00;99266.09;5051596;28;20028;-79
2023/03/22 04:42:07;;;;;;;69.80;48.45;;;;;;;9.15;100.00;99267.81;5051371;28;20025;-79
2023/03/22 04:44:33;;;;;;;70.40;53.80;;;;;;;9.04;100.00;99254.47;5050491;28;20139;-79
2023/03/22 04:46:58;;;;;;;77.55;52.40;;;;;;;9.01;100.00;99255.44;5051445;28;20021;-79
2023/03/22 04:49:25;;;;;;;74.22;51.53;;;;;;;9.03;100.00;99264.03;5051551;28;20056;-78
2023/03/22 04:51:50;;;;;;;79.35;54.50;;;;;;;9.09;100.00;99274.13;5051341;28;20071;-79
2023/03/22 04:54:16;;;;;;;84.28;53.45;;;;;;;9.17;100.00;99281.56;5051459;28;20421;-79
2023/03/22 04:56:41;;;;;;;77.88;53.42;;;;;;;9.19;100.00;99287.53;5051653;28;20027;-79
2023/03/22 04:59:06;;;;;;;82.93;56.15;;;;;;;9.07;100.00;99269.91;5051263;28;20036;-79
2023/03/22 05:01:34;;;;;;;79.82;52.20;;;;;;;9.03;100.00;99266.63;5051824;28;20028;-79
2023/03/22 05:03:59;;;;;;;80.43;54.25;;;;;;;9.06;100.00;99261.28;5051278;28;20032;-79
2023/03/22 05:06:25;;;;;;;91.55;58.95;;;;;;;9.25;100.00;99285.47;5051371;28;20029;-78
2023/03/22 05:08:51;;;;;;;80.88;51.28;;;;;;;9.19;100.00;99290.97;5051086;28;20025;-78
2023/03/22 05:11:19;;;;;;;83.88;55.28;;;;;;;9.15;100.00;99273.84;5051592;28;20033;-79
2023/03/22 05:13:44;;;;;;;83.72;54.25;;;;;;;9.17;100.00;99276.38;5051559;28;20163;-79
2023/03/22 05:16:10;;;;;;;80.53;53.58;;;;;;;9.05;100.00;99264.78;5051280;28;20494;-79
2023/03/22 05:18:41;;;;;;;73.38;51.15;;;;;;;9.10;100.00;99264.56;5051225;28;20041;-78
2023/03/22 05:21:12;;;;;;;75.67;47.87;;;;;;;8.94;100.00;99261.84;5051144;28;20063;-79
2023/03/22 05:23:38;;;;;;;74.25;49.55;;;;;;;8.99;100.00;99259.88;5051033;28;20612;-78
2023/03/22 05:26:03;;;;;;;79.20;57.13;;;;;;;9.05;100.00;99267.38;5049875;28;20120;-79
2023/03/22 05:28:30;;;;;;;76.28;52.90;;;;;;;9.20;100.00;99292.66;5051179;28;20473;-79
2023/03/22 05:30:56;;;;;;;75.07;53.28;;;;;;;9.13;100.00;99282.63;5051038;28;20025;-78
2023/03/22 05:33:21;;;;;;;71.25;50.83;;;;;;;9.21;100.00;99290.91;5051251;28;20036;-79
2023/03/22 05:35:49;;;;;;;70.75;49.03;;;;;;;9.18;100.00;99297.06;5051215;28;20396;-78
2023/03/22 05:38:15;;;;;;;78.38;50.63;;;;;;;9.09;100.00;99283.66;5052586;28;20109;-79
2023/03/22 05:40:40;;;;;;;97.32;64.03;;;;;;;8.83;100.00;99254.53;5055008;28;20099;-79
2023/03/22 05:43:06;;;;;;;82.63;58.38;;;;;;;9.04;100.00;99277.84;5054400;28;20029;-79
2023/03/22 05:45:31;;;;;;;73.95;51.90;;;;;;;9.17;100.00;99276.38;5054644;28;20063;-79
2023/03/22 05:47:57;;;;;;;76.32;50.00;;;;;;;8.98;100.00;99268.59;5054476;28;20282;-79
2023/03/22 05:50:23;;;;;;;77.32;48.67;;;;;;;8.88;100.00;99249.13;5054606;28;20063;-79
2023/03/22 05:52:50;;;;;;;74.53;49.63;;;;;;;8.94;100.00;99260.09;5054428;28;20095;-79
2023/03/22 05:55:16;;;;;;;80.13;54.30;;;;;;;9.19;100.00;99282.34;5054596;28;20056;-79
2023/03/22 05:57:43;;;;;;;71.85;48.97;;;;;;;9.15;100.00;99263.44;5054747;28;20064;-79
2023/03/22 06:00:14;;;;;;;76.30;50.30;;;;;;;9.33;100.00;99282.53;5054140;28;20029;-79
2023/03/22 06:02:40;;;;;;;;;;;;;;;9.33;100.00;99284.28;5054754;28;20028;-78
2023/03/22 06:05:08;;;;;;;72.85;47.42;;;;;;;9.29;100.00;99282.75;5053955;28;19909;-80
2023/03/22 06:07:33;;;;;;;68.45;49.03;;;;;;;9.40;100.00;99291.72;5054436;28;20029;-81
2023/03/22 06:09:58;;;;;;;74.50;47.63;;;;;;;9.36;100.00;99285.00;5054037;28;20492;-78
2023/03/22 06:12:24;;;;;;;71.20;48.15;;;;;;;9.28;100.00;99260.28;5054394;28;20108;-79
2023/03/22 06:14:50;;;;;;;76.20;47.40;;;;;;;9.44;100.00;99274.22;5054070;28;20029;-79
2023/03/22 06:17:16;;;;;;;76.38;51.17;;;;;;;9.50;100.00;99287.75;5053538;28;20041;-79
2023/03/22 06:19:41;;;;;;;76.05;49.13;;;;;;;9.54;100.00;99287.63;5052575;28;20052;-79
2023/03/22 06:22:07;;;;;;;70.88;48.28;;;;;;;9.44;100.00;99276.84;5053918;28;20407;-79
2023/03/22 06:24:32;;;;;;;74.05;51.42;;;;;;;9.63;100.00;99297.56;5053771;28;20051;-78
2023/03/22 06:26:58;;;;;;;75.80;46.95;;;;;;;9.47;100.00;99277.50;5053713;28;20072;-79
2023/03/22 06:29:23;;;;;;;68.63;46.50;;;;;;;9.75;100.00;99283.97;5053941;28;20404;-78
2023/03/22 06:31:48;;;;;;;69.57;49.80;;;;;;;10.32;100.00;99274.19;5053840;28;20431;-78
2023/03/22 06:34:14;;;;;;;61.47;43.22;;;;;;;11.24;100.00;99258.84;5053385;28;20025;-78
2023/03/22 06:36:41;;;;;;;64.07;44.08;;;;;;;12.40;100.00;99293.09;5053573;28;20036;-78
2023/03/22 06:39:07;;;;;;;57.08;40.30;;;;;;;13.52;95.26;99289.59;5053465;28;20021;-78
2023/03/22 06:41:33;;;;;;;54.47;39.22;;;;;;;14.46;89.28;99289.50;5053465;28;20025;-78
2023/03/22 06:43:58;;;;;;;51.45;39.47;;;;;;;14.92;86.96;99271.44;5053341;28;20036;-78
2023/03/22 06:46:23;;;;;;;51.25;40.47;;;;;;;15.23;83.51;99296.34;5053315;28;20094;-78
2023/03/22 06:48:49;;;;;;;50.17;39.67;;;;;;;14.96;84.33;99296.50;5053332;28;20049;-78
2023/03/22 06:51:14;;;;;;;42.92;36.33;;;;;;;14.84;84.01;99275.56;5053510;28;20035;-78
2023/03/22 06:53:39;;;;;;;46.38;38.78;;;;;;;14.94;84.12;99287.06;5053449;28;20025;-78
2023/03/22 06:56:05;;;;;;;45.50;37.30;;;;;;;14.64;84.10;99282.19;5053048;28;20045;-78
2023/03/22 06:58:30;;;;;;;44.80;38.33;;;;;;;14.56;85.19;99287.13;5053244;28;20051;-78
2023/03/22 07:00:56;;;;;;;44.08;36.13;;;;;;;14.76;84.95;99280.50;5052997;28;20086;-78
2023/03/22 07:03:21;;;;;;;45.00;36.97;;;;;;;14.80;84.89;99295.91;5053349;28;20021;-79
2023/03/22 07:05:47;;;;;;;44.67;38.08;;;;;;;14.59;85.20;99273.81;5052889;28;20037;-78
2023/03/22 07:08:12;;;;;;;44.35;38.25;;;;;;;14.54;85.99;99299.47;5052819;28;20112;-79
2023/03/22 07:10:37;;;;;;;43.58;34.90;;;;;;;14.65;85.72;99291.72;5053161;28;20115;-79
2023/03/22 07:13:03;;;;;;;43.10;36.75;;;;;;;14.67;85.15;99303.78;5052844;28;20518;-79
2023/03/22 07:15:31;;;;;;;42.35;33.50;;;;;;;14.43;84.69;99279.22;5052990;28;20385;-79
2023/03/22 07:17:59;;;;;;;47.75;37.40;;;;;;;14.08;85.58;99298.16;5052660;28;20052;-79
2023/03/22 07:20:24;;;;;;;52.08;39.92;;;;;;;13.47;88.26;99281.22;5053000;28;20043;-79
2023/03/22 07:22:50;;;;;;;48.28;38.55;;;;;;;13.20;90.06;99284.63;5052849;28;20477;-79
2023/03/22 07:25:15;;;;;;;46.50;35.55;;;;;;;13.23;90.93;99278.38;5052505;28;20091;-79
2023/03/22 07:27:41;;;;;;;46.05;38.42;;;;;;;13.55;90.35;99299.88;5052826;28;20365;-79
2023/03/22 07:30:06;;;;;;;44.63;37.17;;;;;;;13.85;89.38;99285.75;5052458;28;20017;-79
2023/03/22 07:32:32;;;;;;;47.47;35.25;;;;;;;14.00;87.96;99286.53;5052595;28;20384;-80
2023/03/22 07:34:57;;;;;;;42.42;35.78;;;;;;;14.43;86.72;99285.28;5052246;28;20376;-79
2023/03/22 07:37:22;;;;;;;41.17;34.95;;;;;;;14.89;85.27;99287.38;5052941;28;20059;-79
2023/03/22 07:39:48;;;;;;;40.42;34.95;;;;;;;15.29;84.00;99291.59;5052594;28;20025;-79
2023/03/22 07:42:13;;;;;;;41.95;33.28;;;;;;;15.80;82.26;99262.50;5052480;28;20496;-79
2023/03/22 07:44:38;;;;;;;43.20;34.35;;;;;;;17.10;79.35;99273.56;5052541;28;20021;-79
2023/03/22 07:47:04;;;;;;;37.90;33.83;;;;;;;17.86;74.57;99274.44;5052127;28;20127;-79
2023/03/22 07:49:30;;;;;;;36.65;32.78;;;;;;;18.17;73.34;99270.94;5052222;28;20476;-79
2023/03/22 07:51:55;;;;;;;45.35;35.95;;;;;;;18.79;71.01;99270.97;5052478;28;20033;-79
2023/03/22 07:54:21;;;;;;;39.75;35.05;;;;;;;19.00;69.86;99278.84;5052157;28;20358;-79
2023/03/22 07:56:46;;;;;;;41.67;35.75;;;;;;;19.31;69.52;99283.09;5052545;28;20067;-79
2023/03/22 07:59:13;;;;;;;39.13;34.70;;;;;;;19.56;67.86;99275.63;5051952;28;20071;-79
2023/03/22 08:01:38;;;;;;;39.67;33.90;;;;;;;19.98;66.51;99272.75;5051693;28;20063;-79
2023/03/22 08:04:04;;;;;;;39.78;34.63;;;;;;;19.81;66.34;99282.22;5051749;28;20097;-79
2023/03/22 08:06:31;;;;;;;39.03;34.22;;;;;;;19.31;67.96;99290.19;5052180;28;20388;-79
2023/03/22 08:08:56;;;;;;;40.03;33.92;;;;;;;18.73;68.96;99280.28;5052110;28;20476;-79
2023/03/22 08:11:22;;;;;;;38.60;34.55;;;;;;;18.10;70.43;99271.56;5051853;28;20032;-79
2023/03/22 08:13:47;;;;;;;39.58;33.70;;;;;;;17.46;71.47;99267.97;5051897;28;20022;-79
2023/03/22 08:16:12;;;;;;;36.80;32.92;;;;;;;17.09;72.86;99288.50;5051695;28;20083;-79
2023/03/22 08:18:37;;;;;;;38.38;34.28;;;;;;;16.57;75.01;99254.91;5052067;28;20504;-79
2023/03/22 08:21:03;;;;;;;41.25;36.50;;;;;;;16.45;75.58;99278.56;5051821;28;20480;-79
2023/03/22 08:23:28;;;;;;;41.58;36.25;;;;;;;16.34;76.24;99273.28;5051882;28;20111;-79
2023/03/22 08:25:54;;;;;;;38.55;34.35;;;;;;;16.32;76.77;99277.84;5051833;28;20103;-79
2023/03/22 08:28:19;;;;;;;37.90;33.97;;;;;;;16.42;76.50;99277.97;5051521;28;20385;-79
2023/03/22 08:30:47;;;;;;;44.30;36.50;;;;;;;16.45;77.09;99268.03;5051602;28;20128;-79
2023/03/22 08:33:13;;;;;;;40.50;35.42;;;;;;;16.55;77.09;99280.47;5051347;28;20036;-78
2023/03/22 08:35:39;;;;;;;37.60;33.47;;;;;;;16.55;76.77;99275.22;5051803;28;20500;-79
2023/03/22 08:38:05;;;;;;;38.30;33.92;;;;;;;16.43;76.14;99267.34;5051527;28;20037;-79
2023/03/22 08:40:31;;;;;;;36.67;32.67;;;;;;;16.40;75.95;99262.31;5050395;28;20457;-79
2023/03/22 08:42:57;;;;;;;39.63;33.60;;;;;;;16.50;76.36;99282.63;5051869;28;20029;-79
2023/03/22 08:45:23;;;;;;;38.13;33.55;;;;;;;16.38;76.81;99277.34;5051335;28;20072;-79
2023/03/22 08:47:48;;;;;;;38.95;34.08;;;;;;;16.29;76.56;99256.19;5051470;28;20033;-79
2023/03/22 08:50:14;;;;;;;39.13;35.00;;;;;;;16.21;77.85;99249.72;5051489;28;20025;-79
2023/03/22 08:52:39;;;;;;;41.90;35.30;;;;;;;16.37;78.03;99272.22;5051678;28;20021;-79
2023/03/22 08:55:07;;;;;;;40.45;34.88;;;;;;;16.36;77.19;99262.66;5050181;28;20037;-79
2023/03/22 08:57:33;;;;;;;36.25;32.33;;;;;;;16.45;76.60;99259.34;5051612;28;20037;-79
2023/03/22 08:59:59;;;;;;;36.80;30.20;;;;;;;16.49;76.99;99252.88;5051523;28;20409;-79
2023/03/22 09:02:24;;;;;;;36.53;32.58;;;;;;;16.62;75.79;99260.66;5051143;28;20104;-79
2023/03/22 09:04:50;;;;;;;35.38;31.23;;;;;;;16.55;76.21;99222.63;5051413;28;20025;-79
2023/03/22 09:07:17;;;;;;;28.45;25.55;;;;;;;16.63;74.24;99238.66;5051273;28;20033;-79
2023/03/22 09:09:43;;;;;;;29.67;26.20;;;;;;;16.76;73.99;99252.53;5051491;28;20036;-79
2023/03/22 09:12:08;;;;;;;30.00;26.73;;;;;;;16.78;74.43;99257.69;5051176;28;20021;-79
2023/03/22 09:14:34;;;;;;;26.08;22.33;;;;;;;16.84;73.33;99254.56;5054963;28;20032;-79
2023/03/22 09:17:00;;;;;;;29.20;24.75;;;;;;;16.71;73.16;99231.00;5054960;28;20033;-79
2023/03/22 09:19:25;;;;;;;29.20;23.63;;;;;;;16.78;72.96;99234.88;5055125;28;20104;-79
2023/03/22 09:21:50;;;;;;;29.27;25.05;;;;;;;16.79;72.95;99233.06;5055234;28;20388;-79
2023/03/22 09:24:16;;;;;;;23.60;19.98;;;;;;;17.02;72.33;99244.38;5054729;28;20029;-79
2023/03/22 09:26:41;;;;;;;20.63;18.38;;;;;;;17.13;69.93;99236.47;5055000;28;20029;-79
2023/03/22 09:29:06;;;;;;;20.10;18.10;;;;;;;17.15;70.36;99222.25;5054721;28;20484;-79
2023/03/22 09:31:31;;;;;;;19.10;16.90;;;;;;;17.25;68.52;99247.81;5054945;28;20108;-79
2023/03/22 09:33:57;;;;;;;19.63;17.63;;;;;;;17.19;69.17;99236.84;5054887;28;20021;-79
2023/03/22 09:36:22;;;;;;;17.42;15.48;;;;;;;17.19;68.92;99223.69;5054761;28;20029;-79
2023/03/22 09:38:48;;;;;;;16.55;14.88;;;;;;;17.33;67.08;99246.25;5054716;28;20024;-79
2023/03/22 09:41:27;;;;;;;16.23;14.50;;;;;;;17.23;67.02;99223.41;5054552;28;20054;-79
2023/03/22 09:43:57;;;;;;;16.45;14.45;;;;;;;17.17;65.85;99237.91;5054620;28;20438;-79
2023/03/22 09:46:40;;;;;;;18.23;15.90;;;;;;;16.98;66.86;99214.00;5054326;28;20029;-79
2023/03/22 09:49:12;;;;;;;16.60;14.80;;;;;;;16.92;66.71;99216.19;5054452;28;20029;-79
2023/03/22 09:51:41;;;;;;;18.42;15.25;;;;;;;16.88;67.68;99206.88;5054539;28;20040;-79
2023/03/22 09:54:17;;;;;;;18.08;16.15;;;;;;;16.85;67.38;99211.53;5054302;28;20033;-79
2023/03/22 09:56:48;;;;;;;18.23;15.13;;;;;;;16.89;67.44;99226.13;5054766;28;20472;-79
2023/03/22 09:59:43;;;;;;;18.27;16.37;;;;;;;16.80;67.38;99205.81;5054183;28;20413;-79
2023/03/22 10:02:53;;;;;;;19.85;17.80;;;;;;;16.89;67.33;99220.84;5054143;28;20679;-79
2023/03/22 10:05:57;;;;;;;18.45;16.50;;;;;;;16.94;68.42;99227.44;5031599;28;20096;-79
2023/03/22 10:08:43;;;;;;;18.27;16.30;;;;;;;17.03;67.77;99209.25;5031733;28;20033;-79
2023/03/22 10:11:20;;;;;;;19.48;17.35;;;;;;;17.18;67.04;99219.34;5031675;28;20038;-79
2023/03/22 10:14:27;;;;;;;22.30;17.10;;;;;;;17.19;66.59;99204.41;5031933;28;20033;-79
2023/03/22 10:16:55;;;;;;;21.30;18.98;;;;;;;17.18;67.16;99206.19;4953441;28;20039;-79
2023/03/22 10:19:26;;;;;;;24.60;21.98;;;;;;;17.01;67.83;99201.47;4953272;28;20043;-79
2023/03/22 10:21:54;;;;;;;23.30;19.67;;;;;;;16.75;68.40;99211.44;4953771;29;20167;-79
2023/03/22 10:24:25;;;;;;;22.83;20.23;;;;;;;16.75;68.89;99200.91;4952841;28;20119;-79
2023/03/22 10:26:52;;;;;;;;;;;;;;;16.82;68.76;99212.63;4953925;29;20035;-79
2023/03/22 10:29:39;;;;;;;21.63;19.30;;;;;;;17.01;68.20;99205.88;4953238;29;19970;-79
2023/03/22 10:32:30;;;;;;;22.38;19.45;;;;;;;16.92;68.49;99210.09;4953479;29;20070;-79
2023/03/22 10:34:56;;;;;;;19.02;16.73;;;;;;;17.00;68.02;99185.81;4953278;29;20051;-79
2023/03/22 10:37:28;;;;;;;15.50;13.90;;;;;;;16.76;67.38;99149.97;4953349;29;20386;-79
2023/03/22 10:39:56;;;;;;;14.00;11.85;;;;;;;17.11;65.65;99188.41;4953191;29;20123;-79
2023/03/22 10:42:28;;;;;;;11.95;10.18;;;;;;;17.25;65.69;99200.44;4981481;28;20042;-79
2023/03/22 10:45:02;;;;;;;10.43;9.32;;;;;;;17.41;64.54;99203.50;4991814;28;20547;-79
2023/03/22 10:47:53;;;;;;;10.20;8.98;;;;;;;17.48;64.10;99211.72;4991451;28;20045;-79
2023/03/22 10:50:27;;;;;;;8.98;8.13;;;;;;;17.31;63.24;99184.16;4991294;28;20101;-79
2023/03/22 10:53:11;;;;;;;11.25;10.18;;;;;;;17.43;62.99;99194.50;4996990;28;20030;-79
2023/03/22 10:55:40;;;;;;;11.20;9.38;;;;;;;17.60;63.50;99200.19;5053498;28;20111;-79
2023/03/22 10:58:09;;;;;;;10.65;9.55;;;;;;;17.70;63.87;99209.00;5053357;28;20115;-79
2023/03/22 11:00:34;;;;;;;11.05;9.05;;;;;;;17.66;62.06;99192.63;5053154;28;20374;-79
2023/03/22 11:03:00;;;;;;;11.60;10.50;;;;;;;17.59;62.04;99174.81;5053082;28;20029;-79
2023/03/22 11:05:28;;;;;;;10.38;8.52;;;;;;;17.67;61.61;99173.22;5052964;28;20473;-79
2023/03/22 11:07:56;;;;;;;10.10;8.35;;;;;;;17.91;61.23;99195.88;5053275;28;20032;-79
2023/03/22 11:10:33;;;;;;;9.68;8.70;;;;;;;17.90;60.38;99191.53;5052973;28;20468;-79
2023/03/22 11:13:08;;;;;;;11.98;9.55;;;;;;;17.99;60.07;99201.31;5053073;28;20029;-79
2023/03/22 11:15:53;;;;;;;10.00;9.00;;;;;;;18.00;59.94;99186.34;5052934;28;20033;-79
2023/03/22 11:18:19;;;;;;;10.93;9.88;;;;;;;17.99;58.77;99169.69;5052595;28;20492;-79
2023/03/22 11:20:58;;;;;;;11.02;9.95;;;;;;;18.11;58.86;99188.91;5053011;28;20065;-79
2023/03/22 11:23:25;;;;;;;11.73;10.52;;;;;;;18.19;59.08;99181.16;5052693;28;20025;-79
2023/03/22 11:25:55;;;;;;;12.35;10.88;;;;;;;18.14;58.93;99163.13;5052739;28;20028;-79
2023/03/22 11:28:49;;;;;;;13.38;11.30;;;;;;;18.12;59.19;99167.69;5052668;28;20435;-79